Terminal Aerodrome Forecast
Issued by NWS

Home | Current Version | Previous Version | Text Only | Print | Product List | Glossary On
Versions: 1 2 3 4 5 6 7 8 9 10 11 12 13 14
389
FTUS43 KDVN 050904 AAA
TAFBRL
TAF AMD
KBRL 050904Z 0509/0606 31009KT P6SM BKN020
     FM051000 30007KT P6SM SCT250
     FM051600 21004KT P6SM BKN150
     FM052300 17006KT P6SM OVC060
     FM060300 20010KT P6SM VCSH OVC035=

USA.gov is the U.S. government's official web portal to all federal, state and local government web resources and services.